Latest Weather Observations for Merriwa

IDN60801

Issued at 5:22 pm EST Sunday 18 August 2019 (issued every 10 minutes, with the page automatically refreshed every 10 minutes)

About weather observations | Map of weather stations | Latest weather observations for NSW | Other Formats
Station Details ID: 061287 Name: MERRIWA (ROSCOMMON) Lat: -32.19 Lon: 150.17 Height: 375.0 m
Data from the previous 72 hours. | See also: Recent months at Merriwa
Date/Time
EST
Temp
°C
App
Temp
°C
Dew
Point
°C
Rel
Hum
%
Delta-T
°C
Wind Press
QNH
hPa
Press
MSL
hPa
Rain since
9am
mm
Dir  Spd
km/h
Gust
km/h
Spd
kts
Gust
kts
18/05:00pm 22.7 16.6 -2.1 19 11.0 NNW 20 28 11 15 1012.7 1012.8 0.0
18/04:30pm 23.9 16.3 -1.8 18 11.6 NW 28 37 15 20 1012.7 1012.8 0.0
18/04:00pm 24.3 17.5 -1.5 18 11.7 N 24 35 13 19 1012.7 1012.8 0.0
18/03:30pm 24.8 18.1 -1.1 18 11.9 N 24 33 13 18 1012.8 1012.9 0.0
18/03:00pm 24.5 17.3 -2.1 17 12.0 NNW 26 35 14 19 1013.3 1013.5 0.0
18/02:30pm 24.9 19.0 -1.0 18 11.9 N 20 26 11 14 1013.7 1013.9 0.0
18/02:00pm 23.8 21.4 4.2 28 9.8 NE 6 11 3 6 1014.2 1014.4 0.0
18/01:30pm 23.1 20.2 4.6 30 9.3 NE 9 15 5 8 1015.0 1015.1 0.0
18/01:00pm 22.0 19.8 5.4 34 8.4 NNE 6 13 3 7 1015.7 1015.9 0.0
18/12:30pm 20.9 18.7 6.1 38 7.6 NNE 7 11 4 6 1016.2 1016.4 0.0
18/12:00pm 19.8 17.8 6.9 43 6.6 N 7 11 4 6 1017.0 1017.2 0.0
18/11:30am 17.8 16.8 7.2 50 5.4 SSE 2 9 1 5 1018.1 1018.3 0.0
18/11:00am 16.2 13.9 7.4 56 4.5 SE 9 13 5 7 1018.5 1018.7 0.0
18/10:30am 15.4 12.9 8.2 62 3.7 ESE 11 17 6 9 1019.1 1019.3 0.0
18/10:00am 14.0 11.1 8.2 68 2.9 ESE 13 17 7 9 1019.5 1019.7 0.0
18/09:30am 12.0 9.7 7.5 74 2.2 E 9 13 5 7 1019.8 1020.1 0.0
18/09:00am 10.1 8.2 6.8 80 1.6 SSE 6 7 3 4 1020.2 1020.4 0.0
18/08:30am 7.9 5.9 6.4 90 0.7 SSW 6 7 3 4 1020.4 1020.6 0.0
18/08:00am 5.4 4.3 5.3 99 0.0 CALM 0 0 0 0 1020.4 1020.6 0.0
18/07:37am 4.1 2.8 4.0 99 0.0 CALM 0 2 0 1 1020.2 1020.4 0.0
18/07:30am 3.5 2.1 3.4 99 0.0 CALM 0 0 0 0 1020.2 1020.4 0.0
18/07:00am 0.5 -1.5 0.2 98 0.1 CALM 0 6 0 3 1020.4 1020.6 0.0
18/06:30am -0.1 -2.2 -0.5 97 0.1 CALM 0 0 0 0 1020.3 1020.5 0.0
18/06:00am 0.9 -1.0 0.5 97 0.2 CALM 0 0 0 0 1020.1 1020.3 0.0
18/05:47am 1.1 -1.2 0.7 97 0.2 WSW 2 6 1 3 1020.1 1020.3 0.0
18/05:30am 1.4 -1.6 1.0 97 0.2 WSW 6 7 3 4 1020.3 1020.5 0.0
18/05:00am 1.7 -0.5 1.3 97 0.2 WSW 2 6 1 3 1020.2 1020.4 0.0
18/04:30am 1.9 -1.0 1.5 97 0.2 WSW 6 7 3 4 1020.3 1020.5 0.0
18/04:00am 2.2 0.1 1.6 96 0.2 NE 2 7 1 4 1020.3 1020.5 0.0
18/03:30am 3.0 0.3 2.4 96 0.2 NE 6 7 3 4 1020.3 1020.5 0.0
18/03:00am 4.3 1.8 4.0 98 0.1 NE 6 7 3 4 1020.5 1020.7 0.0
18/02:30am 3.0 0.0 2.1 94 0.4 NE 7 9 4 5 1020.8 1021.0 0.0
18/02:00am 5.2 2.9 4.8 97 0.2 E 6 7 3 4 1020.8 1021.0 0.0
18/01:30am 4.1 2.6 2.9 92 0.5 CALM 0 0 0 0 1021.1 1021.3 0.0
18/01:00am 4.9 3.5 3.7 92 0.5 CALM 0 0 0 0 1021.4 1021.6 0.0
18/12:30am 5.0 2.4 3.3 89 0.7 E 6 7 3 4 1021.5 1021.7 0.0
18/12:00am 6.5 4.0 4.7 88 0.8 SE 7 9 4 5 1021.5 1021.7 0.0
 
Date/Time
EST
Temp
°C
App
Temp
°C
Dew
Point
°C
Rel
Hum
%
Delta-T
°C
Wind Press
QNH
hPa
Press
MSL
hPa
Rain since
9am
mm
Dir  Spd
km/h
Gust
km/h
Spd
kts
Gust
kts
17/11:30pm 7.0 4.5 4.5 84 1.1 ESE 7 11 4 6 1021.4 1021.6 0.0
17/11:00pm 6.9 4.5 4.2 83 1.2 ENE 6 9 3 5 1021.4 1021.6 0.0
17/10:30pm 8.6 5.9 5.4 80 1.5 E 9 15 5 8 1021.4 1021.6 0.0
17/10:00pm 9.1 6.3 5.1 76 1.8 ESE 9 15 5 8 1021.6 1021.8 0.0
17/09:30pm 9.9 6.4 5.3 73 2.1 ESE 13 17 7 9 1021.3 1021.5 0.0
17/09:00pm 11.5 8.2 6.2 70 2.5 E 13 19 7 10 1021.5 1021.7 0.0
17/08:30pm 11.6 7.9 6.1 69 2.6 E 15 20 8 11 1021.0 1021.2 0.0
17/08:00pm 11.6 7.7 5.3 65 3.0 ESE 15 17 8 9 1020.5 1020.7 0.0
17/07:30pm 12.5 8.7 3.7 55 4.0 SE 13 19 7 10 1019.9 1020.2 0.0
17/07:00pm 14.8 9.8 4.5 50 4.9 E 20 30 11 16 1019.2 1019.4 0.0
17/06:30pm 11.3 8.3 -4.8 32 6.0 SSW 2 15 1 8 1018.7 1018.9 0.0
17/06:00pm 14.9 11.5 -4.9 25 7.7 WSW 4 6 2 3 1018.3 1018.5 0.0
17/05:30pm 18.4 14.1 -4.9 20 9.4 WSW 9 13 5 7 1017.9 1018.1 0.0
17/05:00pm 20.6 15.2 -4.5 18 10.4 WSW 15 20 8 11 1017.5 1017.7 0.0
17/04:30pm 21.7 15.9 -4.4 17 10.9 W 17 26 9 14 1017.1 1017.3 0.0
17/04:00pm 22.3 16.0 -3.9 17 11.1 W 20 30 11 16 1017.0 1017.2 0.0
17/03:30pm 22.7 17.2 -2.1 19 11.0 W 17 26 9 14 1016.8 1017.0 0.0
17/03:00pm 22.5 15.9 -3.0 18 11.1 WNW 22 35 12 19 1016.7 1016.9 0.0
17/02:30pm 22.6 16.0 -2.9 18 11.1 WSW 22 32 12 17 1016.7 1016.9 0.0
17/02:00pm 22.7 16.1 -3.6 17 11.3 WSW 22 37 12 20 1017.0 1017.2 0.0
17/01:30pm 22.3 15.2 -4.7 16 11.3 W 24 33 13 18 1017.4 1017.6 0.0
17/01:00pm 22.7 17.2 -2.1 19 11.0 WSW 17 22 9 12 1017.5 1017.7 0.0
17/12:30pm 22.0 15.7 -4.1 17 11.0 WSW 20 32 11 17 1017.8 1018.0 0.0
17/12:00pm 21.9 16.1 -1.4 21 10.4 WNW 19 30 10 16 1018.1 1018.3 0.0
17/11:30am 20.8 15.7 -1.7 22 9.9 SW 15 24 8 13 1018.4 1018.6 0.0
17/11:00am 20.8 15.9 -0.5 24 9.5 W 15 24 8 13 1018.7 1018.9 0.0
17/10:30am 19.4 13.6 -1.7 24 9.1 W 19 28 10 15 1018.8 1019.0 0.0
17/10:00am 19.3 14.0 -0.7 26 8.8 NW 17 24 9 13 1018.9 1019.1 0.0
17/09:30am 18.2 12.7 -2.1 25 8.6 NNW 17 20 9 11 1019.1 1019.3 0.0
17/09:00am 16.9 12.0 -3.2 25 8.2 NNW 13 17 7 9 1019.3 1019.5 0.0
17/08:30am 15.3 10.3 -4.1 26 7.7 NW 13 17 7 9 1019.5 1019.7 0.0
17/08:00am 13.9 9.2 -5.3 26 7.3 WNW 11 15 6 8 1019.5 1019.7 0.0
17/07:30am 11.6 7.0 -4.5 32 6.1 NW 11 15 6 8 1019.1 1019.3 0.0
17/07:00am 7.9 3.6 -5.2 39 4.6 NW 9 11 5 6 1018.8 1019.0 0.0
17/06:30am 7.4 2.3 -5.6 39 4.5 NW 13 17 7 9 1018.5 1018.7 0.0
17/06:00am 8.1 3.0 -5.3 38 4.7 NW 13 15 7 8 1017.9 1018.1 0.0
17/05:30am 7.0 2.3 -5.3 41 4.3 NW 11 13 6 7 1017.5 1017.7 0.0
17/05:00am 6.5 1.8 -5.5 42 4.1 NW 11 13 6 7 1017.3 1017.4 0.0
17/04:30am 6.4 2.6 -5.9 41 4.2 SW 6 7 3 4 1017.0 1017.2 0.0
17/04:00am 9.1 3.9 -5.9 34 5.3 WNW 13 15 7 8 1016.2 1016.4 0.0
17/03:30am 7.8 2.6 -6.3 36 4.9 NW 13 15 7 8 1016.0 1016.2 0.0
17/03:00am 10.3 5.1 -6.1 31 5.9 WNW 13 15 7 8 1016.1 1016.3 0.0
17/02:30am 11.7 6.9 -5.7 29 6.4 WNW 11 15 6 8 1016.2 1016.4 0.0
17/02:00am 11.0 5.5 -5.5 31 6.0 NW 15 17 8 9 1016.2 1016.4 0.0
17/01:30am 11.2 6.0 -5.7 30 6.2 WNW 13 17 7 9 1016.3 1016.5 0.0
17/01:00am 10.7 4.8 -6.1 30 6.0 WNW 17 20 9 11 1016.6 1016.8 0.0
17/12:30am 11.9 6.8 -5.1 30 6.3 W 13 20 7 11 1016.8 1017.0 0.0
17/12:00am 10.8 5.6 -6.5 29 6.2 WNW 13 17 7 9 1017.1 1017.3 0.0
 
Date/Time
EST
Temp
°C
App
Temp
°C
Dew
Point
°C
Rel
Hum
%
Delta-T
°C
Wind Press
QNH
hPa
Press
MSL
hPa
Rain since
9am
mm
Dir  Spd
km/h
Gust
km/h
Spd
kts
Gust
kts
16/11:30pm 13.2 7.3 -5.9 26 7.1 NNW 17 22 9 12 1017.0 1017.2 0.0
16/11:00pm 13.1 7.2 -5.9 26 7.0 NNW 17 22 9 12 1017.5 1017.7 0.0
16/10:30pm 13.6 7.7 -5.5 26 7.2 NNW 17 22 9 12 1017.7 1017.9 0.0
16/10:00pm 14.1 8.5 -6.1 24 7.5 NNW 15 19 8 10 1018.1 1018.3 0.0
16/09:30pm 14.7 9.2 -5.6 24 7.7 NNW 15 17 8 9 1018.5 1018.7 0.0
16/09:00pm 13.7 8.7 -4.5 28 7.0 NNW 13 17 7 9 1018.5 1018.7 0.0
16/08:30pm 11.4 7.0 -5.5 30 6.2 NNW 9 11 5 6 1018.6 1018.8 0.0
16/08:00pm 10.7 6.3 -5.7 31 5.9 NNW 9 13 5 7 1018.7 1018.9 0.0
16/07:30pm 11.5 6.7 -5.9 29 6.3 NW 11 15 6 8 1018.6 1018.8 0.0
16/07:00pm 12.3 7.9 -5.7 28 6.6 NW 9 11 5 6 1018.5 1018.7 0.0
16/06:30pm 12.4 7.6 -6.0 27 6.8 NW 11 13 6 7 1018.2 1018.4 0.0
16/06:00pm 14.1 9.2 -6.7 23 7.7 WNW 11 13 6 7 1018.1 1018.3 0.0
16/05:30pm 17.8 12.5 -6.8 18 9.4 WNW 13 15 7 8 1017.8 1018.0 0.0
16/05:00pm 20.6 14.6 -6.9 15 10.8 W 17 26 9 14 1017.6 1017.8 0.0
16/04:30pm 21.6 15.6 -7.0 14 11.4 W 17 24 9 13 1017.4 1017.6 0.0
16/04:00pm 22.2 14.9 -6.5 14 11.6 WNW 24 35 13 19 1017.5 1017.7 0.0
16/03:30pm 22.1 14.8 -6.6 14 11.6 W 24 37 13 20 1017.5 1017.7 0.0
16/03:00pm 22.7 15.3 -7.1 13 12.0 WNW 24 37 13 20 1017.6 1017.8 0.0
16/02:30pm 22.3 14.6 -6.5 14 11.7 W 26 39 14 21 1017.9 1018.1 0.0
16/02:29pm 22.4 14.3 -6.4 14 11.7 WNW 28 46 15 25 1017.9 1018.1 0.0
16/02:00pm 22.6 14.2 -6.2 14 11.7 WNW 30 41 16 22 1018.2 1018.4 0.0
16/01:30pm 22.0 13.6 -5.8 15 11.4 WNW 30 46 16 25 1018.7 1018.9 0.0
16/01:26pm 22.2 14.2 -5.6 15 11.4 WNW 28 46 15 25 1018.6 1018.8 0.0
16/01:00pm 21.3 12.9 -5.5 16 10.9 W 30 43 16 23 1019.2 1019.4 0.0
16/12:42pm 22.0 14.1 -4.9 16 11.2 WNW 28 46 15 25 1019.5 1019.7 0.0
16/12:30pm 22.1 14.2 -4.9 16 11.3 WNW 28 39 15 21 1019.6 1019.9 0.0
16/12:00pm 21.6 14.1 -4.5 17 10.9 W 26 43 14 23 1020.2 1020.4 0.0
16/11:30am 21.2 13.4 -4.0 18 10.6 WNW 28 41 15 22 1020.6 1020.8 0.0
16/11:20am 20.5 12.6 -4.6 18 10.4 W 28 43 15 23 1020.8 1021.0 0.0
16/11:00am 20.7 15.6 -1.8 22 9.8 WNW 15 24 8 13 1021.2 1021.4 0.0
16/10:30am 17.0 12.7 -1.6 28 7.9 W 11 15 6 8 1021.7 1021.9 0.0
16/10:00am 14.1 10.0 -2.8 31 6.8 WSW 9 13 5 7 1022.0 1022.3 0.0
16/09:30am 11.8 7.8 -2.4 37 5.6 WSW 9 13 5 7 1022.0 1022.3 0.0
16/09:00am 9.1 5.1 -1.9 46 4.3 WSW 9 11 5 6 1022.2 1022.5 0.0
16/08:30am 6.4 2.4 -2.2 54 3.2 WSW 9 11 5 6 1022.3 1022.6 0.0
16/08:00am 4.2 0.7 -1.6 66 2.1 WSW 7 11 4 6 1022.4 1022.7 0.0
16/07:30am 0.8 -2.2 -1.9 82 1.0 W 4 6 2 3 1022.2 1022.5 0.0
16/07:00am -1.8 -4.3 -3.8 86 0.6 CALM 0 0 0 0 1022.3 1022.6 0.0
16/06:30am -2.4 -5.0 -4.6 85 0.6 CALM 0 0 0 0 1022.3 1022.6 0.0
16/06:00am -2.4 -5.0 -4.6 85 0.6 CALM 0 0 0 0 1022.3 1022.6 0.0
16/05:30am -1.7 -4.2 -3.9 85 0.6 CALM 0 0 0 0 1022.3 1022.6 0.0
16/05:00am -1.9 -5.6 -4.9 80 0.9 W 6 7 3 4 1022.2 1022.5 0.0
16/04:30am -1.1 -4.8 -4.1 80 0.9 W 6 9 3 5 1022.3 1022.6 0.0
16/04:00am -1.0 -4.9 -4.2 79 1.0 W 7 9 4 5 1022.3 1022.6 0.0
16/03:30am -1.2 -4.9 -4.5 78 1.0 WNW 6 9 3 5 1022.4 1022.7 0.0
16/03:00am -0.2 -3.9 -3.2 80 1.0 W 7 9 4 5 1022.5 1022.8 0.0
16/02:30am -1.2 -5.1 -4.2 80 0.9 W 7 9 4 5 1022.6 1022.9 0.0
16/02:00am -1.0 -4.7 -4.5 77 1.1 WSW 6 7 3 4 1023.0 1023.2 0.0
16/01:30am -0.1 -3.8 -4.3 73 1.4 W 6 7 3 4 1023.2 1023.4 0.0
16/01:00am -0.3 -4.2 -4.4 74 1.3 W 7 9 4 5 1023.5 1023.7 0.0
16/12:30am 0.4 -3.2 -4.0 72 1.5 W 6 7 3 4 1023.6 1023.8 0.0
16/12:00am 2.2 -2.0 -3.5 66 1.9 SW 9 13 5 7 1024.0 1024.2 0.0
 
Date/Time
EST
Temp
°C
App
Temp
°C
Dew
Point
°C
Rel
Hum
%
Delta-T
°C
Wind Press
QNH
hPa
Press
MSL
hPa
Rain since
9am
mm
Dir  Spd
km/h
Gust
km/h
Spd
kts
Gust
kts
15/11:30pm 1.6 -2.2 -3.9 67 2.0 SW 7 9 4 5 1024.2 1024.5 0.0
15/11:00pm 2.1 -1.2 -4.4 62 2.3 E 4 7 2 4 1024.3 1024.6 0.0
15/10:30pm 3.8 0.2 -3.7 58 2.6 ENE 6 7 3 4 1024.2 1024.5 0.0
15/10:00pm 3.7 -0.7 -2.7 63 2.3 NW 11 13 6 7 1024.1 1024.3 0.0
15/09:30pm 4.5 1.4 -2.8 59 2.6 N 4 6 2 3 1024.3 1024.6 0.0
15/09:00pm 4.4 1.2 -3.4 57 2.8 NW 4 7 2 4 1024.4 1024.7 0.0
15/08:30pm 6.0 2.5 -2.6 54 3.2 NW 6 7 3 4 1024.2 1024.5 0.0
15/08:00pm 7.4 4.6 -3.7 45 4.0 NW 2 6 1 3 1024.2 1024.5 0.0
15/07:30pm 8.3 4.6 -2.9 45 4.2 WNW 7 7 4 4 1024.0 1024.2 0.0
15/07:00pm 7.9 4.3 -3.3 45 4.1 WSW 6 9 3 5 1023.8 1024.0 0.0
15/06:30pm 9.1 5.5 -3.8 40 4.8 W 6 6 3 3 1023.8 1024.0 0.0
15/06:00pm 10.7 6.9 -5.3 32 5.8 W 6 7 3 4 1023.5 1023.7 0.0
15/05:30pm 15.1 10.9 -4.2 26 7.6 W 9 13 5 7 1023.4 1023.6 0.0

Other formats

Comma delimited format used in spreadsheet applications
http://www.bom.gov.au/fwo/IDN60801/IDN60801.95754.axf

JavaScript Object Notation format (JSON) in row-major order
http://www.bom.gov.au/fwo/IDN60801/IDN60801.95754.json

Data quality

Most of these data are generated automatically and are frequently updated. Quality checks on data are not normally performed. It is possible for incorrect values to appear. Refer to information at About Latest Weather Observations and please check the disclaimer before using these data.